Time;durP1;ratioP1;P1;durP2;ratioP2;P2;SDS_P1;SDS_P2;PMS_P1;PMS_P2;Temp;Humidity;BMP_temperature;BMP_pressure;BME280_temperature;BME280_humidity;BME280_pressure;Samples;Min_cycle;Max_cycle;Signal;HPM_P1;HPM_P2
2023/10/09 00:03:03;;;;;;;4.20;1.10;;;;;;;3.04;70.50;99008.27;108453;1264;73035;-23
2023/10/09 00:08:17;;;;;;;3.60;1.10;;;;;;;3.28;70.02;99011.27;108707;1263;72757;-23
2023/10/09 00:10:52;;;;;;;;;;;;;;;3.68;68.43;99011.64;108653;1263;58843;-23
2023/10/09 00:13:28;;;;;;;3.30;1.00;;;;;;;3.62;68.27;99013.66;108786;1263;58881;-23
2023/10/09 00:16:01;;;;;;;4.90;1.50;;;;;;;3.51;68.44;99013.39;108656;1263;73044;-23
2023/10/09 00:18:29;;;;;;;3.80;1.30;;;;;;;3.32;69.20;99017.09;108755;1263;73068;-23
2023/10/09 00:21:00;;;;;;;6.80;1.40;;;;;;;3.18;69.71;99015.24;108782;1263;72678;-23
2023/10/09 00:23:31;;;;;;;3.80;1.20;;;;;;;3.02;70.52;99021.55;108789;1263;58900;-23
2023/10/09 00:26:10;;;;;;;4.30;1.30;;;;;;;2.95;70.77;99017.63;108737;1263;59132;-23
2023/10/09 00:28:47;;;;;;;3.60;1.50;;;;;;;2.81;71.50;99016.05;108808;1263;71846;-32
2023/10/09 00:31:15;;;;;;;2.30;0.90;;;;;;;2.74;71.76;99008.73;108752;1263;74757;-23
2023/10/09 00:33:44;;;;;;;3.40;1.40;;;;;;;2.90;71.68;99013.75;108711;1263;72785;-23
2023/10/09 00:36:19;;;;;;;6.40;1.40;;;;;;;3.27;70.36;99015.81;108700;1263;58804;-23
2023/10/09 00:38:51;;;;;;;3.20;1.20;;;;;;;3.34;69.80;99015.80;108731;1263;58662;-23
2023/10/09 00:41:24;;;;;;;2.70;1.30;;;;;;;3.24;69.87;99027.10;108766;1263;73074;-24
2023/10/09 00:43:52;;;;;;;7.90;1.40;;;;;;;3.15;70.42;99025.88;108792;1263;74473;-23
2023/10/09 00:49:02;;;;;;;5.90;1.30;;;;;;;2.94;71.37;99035.15;108686;1263;59236;-23
2023/10/09 00:51:36;;;;;;;6.40;1.50;;;;;;;2.80;71.93;99035.65;108607;1268;60036;-23
2023/10/09 00:54:14;;;;;;;5.80;1.60;;;;;;;2.71;72.46;99042.45;108735;1263;73084;-23
2023/10/09 00:56:51;;;;;;;1.90;1.00;;;;;;;2.72;72.82;99043.27;108737;1263;73209;-23
2023/10/09 00:59:23;;;;;;;3.00;1.30;;;;;;;3.21;71.28;99050.11;108762;1263;72740;-23
2023/10/09 01:02:05;;;;;;;2.80;1.50;;;;;;;3.53;69.94;99048.98;108745;1263;60044;-23
2023/10/09 01:04:37;;;;;;;6.10;1.60;;;;;;;3.48;69.89;99048.71;108775;1263;60202;-23
2023/10/09 01:07:09;;;;;;;4.20;1.50;;;;;;;3.43;70.23;99052.44;108690;1266;71840;-24
2023/10/09 01:09:38;;;;;;;6.10;1.80;;;;;;;3.25;70.75;99059.99;108596;1265;74303;-23
2023/10/09 01:12:06;;;;;;;7.60;1.70;;;;;;;3.21;71.43;99060.05;108689;1265;71132;-23
2023/10/09 01:14:40;;;;;;;3.80;1.50;;;;;;;3.13;71.73;99063.05;108702;1265;59347;-23
2023/10/09 01:17:09;;;;;;;2.20;1.40;;;;;;;3.01;72.05;99056.09;108689;1264;60022;-23
2023/10/09 01:19:37;;;;;;;4.70;1.50;;;;;;;2.95;72.62;99061.70;108636;1265;72143;-23
2023/10/09 01:22:12;;;;;;;4.50;1.60;;;;;;;3.01;72.47;99063.09;108711;1265;74330;-23
2023/10/09 01:27:14;;;;;;;3.80;1.40;;;;;;;3.62;70.12;99059.66;102654;1290;600750;-25
2023/10/09 01:37:05;;;;;;;2.70;1.00;;;;;;;3.48;71.13;99080.29;102712;1290;600299;-25
2023/10/09 01:39:39;;;;;;;4.50;1.30;;;;;;;3.39;71.65;99086.09;105051;1269;61186;-25
2023/10/09 01:42:09;;;;;;;2.40;0.90;;;;;;;3.32;71.80;99088.30;104930;1264;61087;-25
2023/10/09 01:52:24;;;;;;;3.10;1.30;;;;;;;4.00;69.50;99092.88;102686;1290;600050;-24
2023/10/09 01:54:53;;;;;;;3.60;1.30;;;;;;;3.82;69.91;99089.21;105042;1267;61118;-24
2023/10/09 01:57:24;;;;;;;7.20;1.60;;;;;;;3.71;70.43;99098.88;104873;1265;61174;-24
2023/10/09 01:59:55;;;;;;;4.10;1.00;;;;;;;3.53;71.07;99095.83;104808;1270;71016;-24
2023/10/09 02:02:26;;;;;;;1.90;0.60;;;;;;;3.38;71.91;99098.48;105070;1267;74340;-25
2023/10/09 02:07:44;;;;;;;3.00;1.00;;;;;;;3.28;72.55;99110.30;104896;1264;61164;-24
2023/10/09 02:12:59;;;;;;;2.00;0.80;;;;;;;3.80;70.74;99116.30;104819;1270;70723;-24
2023/10/09 02:23:20;;;;;;;4.00;1.40;;;;;;;3.35;72.73;99123.33;102644;1294;600063;-24
2023/10/09 02:25:53;;;;;;;4.10;1.20;;;;;;;3.18;72.88;99127.13;104852;1266;61012;-23
2023/10/09 02:28:21;;;;;;;2.00;0.80;;;;;;;3.08;73.79;99131.17;104807;1272;61260;-24
2023/10/09 02:38:27;;;;;;;4.50;1.10;;;;;;;3.78;70.90;99134.58;102600;1293;600134;-22
2023/10/09 02:43:46;;;;;;;4.30;1.30;;;;;;;3.36;72.14;99127.08;104773;1267;61129;-24
2023/10/09 02:46:18;;;;;;;2.40;1.20;;;;;;;3.26;72.72;99126.55;104697;1268;71064;-25
2023/10/09 02:56:36;;;;;;;2.00;0.80;;;;;;;3.92;71.07;99125.94;102566;1292;600180;-24
2023/10/09 02:59:08;;;;;;;2.80;1.40;;;;;;;3.77;70.78;99120.02;104747;1269;61161;-25
2023/10/09 03:09:17;;;;;;;8.30;1.40;;;;;;;3.10;73.23;99137.62;102658;1291;599960;-23
2023/10/09 03:11:53;;;;;;;1.40;1.00;;;;;;;2.99;73.56;99133.00;104825;1267;61014;-22
2023/10/09 03:14:24;;;;;;;2.40;0.80;;;;;;;3.03;73.83;99143.43;104835;1267;61151;-24
2023/10/09 03:24:36;;;;;;;3.50;0.80;;;;;;;3.22;72.79;99135.85;102582;1293;600117;-24
2023/10/09 03:27:05;;;;;;;4.30;1.20;;;;;;;3.07;73.21;99142.38;104862;1267;61088;-24
2023/10/09 03:29:33;;;;;;;1.10;0.70;;;;;;;2.95;73.86;99147.59;104890;1272;61195;-24
2023/10/09 03:32:01;;;;;;;2.10;1.00;;;;;;;2.84;74.35;99142.65;105690;1260;70935;-24
2023/10/09 03:34:30;;;;;;;1.40;0.80;;;;;;;2.96;74.62;99144.84;105598;1260;72229;-24
2023/10/09 03:44:44;;;;;;;2.70;0.80;;;;;;;3.28;73.16;99144.65;102624;1293;600170;-23
2023/10/09 03:47:16;;;;;;;4.20;0.90;;;;;;;3.15;73.74;99153.98;104881;1267;61129;-24
2023/10/09 03:49:45;;;;;;;3.30;1.00;;;;;;;2.99;74.33;99156.34;104886;1269;60994;-25
2023/10/09 03:52:17;;;;;;;2.00;0.60;;;;;;;2.85;75.21;99155.97;104789;1267;71020;-24
2023/10/09 04:02:25;;;;;;;2.50;1.00;;;;;;;3.45;73.40;99166.80;102639;1295;600131;-25
2023/10/09 04:12:34;;;;;;;3.20;0.90;;;;;;;2.96;75.48;99169.67;102683;1294;600151;-24
2023/10/09 04:15:03;;;;;;;3.00;0.90;;;;;;;2.92;75.56;99166.14;104813;1267;61095;-25
2023/10/09 04:17:34;;;;;;;1.70;1.00;;;;;;;3.35;74.38;99172.42;104862;1270;61123;-24
2023/10/09 04:22:50;;;;;;;2.80;0.90;;;;;;;3.63;72.60;99178.41;104765;1269;73039;-24
2023/10/09 04:25:25;;;;;;;5.70;1.00;;;;;;;3.42;73.10;99183.08;102646;1266;3106379;-24
2023/10/09 04:28:08;;;;;;;3.40;1.10;;;;;;;3.20;74.06;99180.89;105017;1264;61103;-24
2023/10/09 04:30:42;;;;;;;2.30;1.10;;;;;;;3.04;74.69;99178.23;104925;1264;61146;-24
2023/10/09 04:40:51;;;;;;;1.10;0.80;;;;;;;3.53;73.39;99190.26;102597;1292;599982;-24
2023/10/09 04:43:22;;;;;;;1.60;0.70;;;;;;;3.59;72.81;99194.59;104892;1267;61120;-24
2023/10/09 04:48:47;;;;;;;1.50;0.70;;;;;;;3.26;73.98;99193.44;104775;1266;72722;-24
2023/10/09 04:51:21;;;;;;;4.20;1.20;;;;;;;3.20;74.60;99195.45;104839;1267;74318;-24
2023/10/09 04:56:51;;;;;;;3.10;1.00;;;;;;;3.03;75.77;99190.30;104876;1270;61186;-24
2023/10/09 04:59:19;;;;;;;3.40;1.10;;;;;;;3.53;74.58;99190.95;104898;1270;61128;-24
2023/10/09 05:01:57;;;;;;;1.80;0.80;;;;;;;3.78;73.24;99190.55;104929;1269;72238;-24
2023/10/09 05:04:47;;;;;;;4.10;1.10;;;;;;;3.62;73.68;99193.25;105122;1267;74379;-24
2023/10/09 05:07:36;;;;;;;2.70;1.20;;;;;;;3.31;74.44;99189.80;104880;1267;72661;-24
2023/10/09 05:10:18;;;;;;;7.10;1.70;;;;;;;3.16;75.37;99194.45;104887;1264;61170;-25
2023/10/09 05:12:47;;;;;;;3.90;1.20;;;;;;;2.92;76.06;99194.58;104753;1264;61102;-24
2023/10/09 05:15:16;;;;;;;2.10;1.00;;;;;;;2.74;76.79;99199.33;105000;1264;73006;-24
2023/10/09 05:17:51;;;;;;;3.10;0.90;;;;;;;2.81;77.02;99206.73;105151;1269;74337;-24
2023/10/09 05:28:25;;;;;;;3.00;1.00;;;;;;;3.44;74.38;99206.14;102706;1294;600147;-24
2023/10/09 05:31:15;;;;;;;1.70;0.90;;;;;;;3.25;75.10;99206.57;105048;1269;61195;-23
2023/10/09 05:49:54;;;;;;;3.10;1.00;;;;;;;3.57;74.74;99222.30;104891;1266;72209;-25
2023/10/09 06:04:54;;;;;;;6.00;1.10;;;;;;;4.22;73.11;99238.30;104868;1264;61056;-24
2023/10/09 06:07:40;;;;;;;2.60;0.90;;;;;;;4.05;73.15;99237.95;104879;1270;72131;-24
2023/10/09 06:10:19;;;;;;;3.30;1.20;;;;;;;3.91;73.99;99248.98;104846;1272;74433;-24
2023/10/09 06:12:49;;;;;;;3.50;0.90;;;;;;;3.67;74.50;99244.16;102757;1267;3152802;-25
2023/10/09 06:18:26;;;;;;;1.60;1.00;;;;;;;3.64;75.59;99245.34;105176;1267;61170;-24
2023/10/09 06:24:08;;;;;;;2.40;0.90;;;;;;;4.35;72.62;99256.70;105206;1263;74379;-24
2023/10/09 06:26:36;;;;;;;3.40;1.00;;;;;;;4.22;72.77;99266.29;105155;1264;72654;-23
2023/10/09 06:29:30;;;;;;;3.30;1.10;;;;;;;4.20;72.90;99273.48;104842;1264;61183;-23
2023/10/09 06:31:59;;;;;;;3.10;1.20;;;;;;;4.16;73.61;99276.73;105317;1255;61132;-24
2023/10/09 06:34:35;;;;;;;3.90;1.00;;;;;;;3.88;74.04;99275.03;105612;1261;72998;-24
2023/10/09 06:42:43;;;;;;;4.00;1.20;;;;;;;4.46;72.94;99284.98;105271;1257;61084;-23
2023/10/09 06:55:48;;;;;;;4.60;1.10;;;;;;;4.33;72.92;99279.29;104849;1267;61113;-24
2023/10/09 06:58:26;;;;;;;1.90;0.90;;;;;;;4.18;73.44;99283.51;104854;1271;61123;-25
2023/10/09 07:03:29;;;;;;;3.60;1.10;;;;;;;4.05;74.52;99289.01;105155;1269;74311;-24
2023/10/09 07:06:48;;;;;;;2.00;0.80;;;;;;;4.45;73.14;99278.55;102783;1260;3150972;-23
2023/10/09 07:22:16;;;;;;;2.70;1.10;;;;;;;4.23;73.37;99287.37;105076;1269;61116;-24
2023/10/09 07:32:22;;;;;;;3.00;1.00;;;;;;;4.93;70.46;99271.67;102592;1302;600228;-22
2023/10/09 07:46:29;;;;;;;4.30;1.30;;;;;;;4.89;71.43;99285.10;104919;1269;61177;-24
2023/10/09 07:48:04;;;;;;;1.90;1.00;;;;;;;4.89;71.30;99298.75;104663;1267;61044;-22
2023/10/09 07:50:47;;;;;;;2.60;1.20;;;;;;;4.84;71.36;99304.00;104816;1271;70986;-24
2023/10/09 07:53:18;;;;;;;3.00;1.20;;;;;;;4.78;71.64;99311.70;104964;1263;73356;-24
2023/10/09 07:55:58;;;;;;;2.80;1.10;;;;;;;4.88;71.71;99318.94;102663;1260;3098452;-24
2023/10/09 07:58:26;;;;;;;2.50;0.90;;;;;;;4.82;71.33;99316.80;105256;1259;61193;-24
2023/10/09 08:01:07;;;;;;;3.40;1.20;;;;;;;5.04;70.72;99318.39;105221;1260;61206;-24
2023/10/09 08:03:36;;;;;;;1.50;0.80;;;;;;;5.68;69.05;99311.28;105163;1264;72299;-24
2023/10/09 08:06:37;;;;;;;3.80;1.20;;;;;;;5.90;67.58;99311.93;105017;1260;74276;-24
2023/10/09 08:14:59;;;;;;;2.80;1.10;;;;;;;5.96;67.82;99302.27;104583;1267;61499;-24
2023/10/09 08:17:28;;;;;;;4.50;1.00;;;;;;;5.91;67.38;99297.21;104955;1269;73030;-24
2023/10/09 08:19:58;;;;;;;3.00;1.20;;;;;;;5.76;67.22;99280.50;105240;1267;74412;-24
2023/10/09 08:24:58;;;;;;;2.70;0.90;;;;;;;5.88;66.89;99278.81;105216;1266;61152;-24
2023/10/09 08:37:48;;;;;;;3.40;1.40;;;;;;;6.38;64.37;99270.74;102614;1293;600587;-23
2023/10/09 08:40:20;;;;;;;3.60;1.30;;;;;;;6.42;65.95;99280.14;104864;1272;61192;-24
2023/10/09 08:42:53;;;;;;;5.40;1.00;;;;;;;6.73;64.39;99272.22;104815;1272;61200;-24
2023/10/09 08:45:24;;;;;;;2.90;1.00;;;;;;;6.89;64.08;99266.02;104871;1272;73984;-24
2023/10/09 08:55:32;;;;;;;4.30;1.00;;;;;;;7.12;61.52;99247.70;102664;1303;599444;-21
2023/10/09 08:58:01;;;;;;;2.40;0.80;;;;;;;7.23;60.47;99241.27;105069;1267;61107;-23
2023/10/09 09:00:33;;;;;;;1.70;1.10;;;;;;;7.45;59.50;99233.52;104662;1276;61216;-24
2023/10/09 09:03:01;;;;;;;2.60;0.90;;;;;;;7.54;59.65;99243.27;105085;1269;70994;-23
2023/10/09 09:05:29;;;;;;;2.60;1.10;;;;;;;7.68;60.01;99242.17;104856;1267;74284;-24
2023/10/09 09:07:59;;;;;;;2.40;0.90;;;;;;;8.09;58.61;99236.16;103836;1267;3180399;-22
2023/10/09 09:10:38;;;;;;;2.60;0.90;;;;;;;8.16;57.99;99229.44;104934;1270;61252;-23
2023/10/09 09:13:06;;;;;;;2.60;0.90;;;;;;;8.12;56.90;99221.81;104862;1270;61554;-23
2023/10/09 09:23:14;;;;;;;3.40;0.90;;;;;;;7.43;56.02;99226.17;102698;1289;600210;-23
2023/10/09 09:25:44;;;;;;;2.10;0.90;;;;;;;7.44;56.34;99228.06;104922;1267;61153;-23
2023/10/09 09:28:14;;;;;;;4.60;1.00;;;;;;;7.50;55.38;99226.80;104774;1273;62099;-23
2023/10/09 09:30:41;;;;;;;4.00;0.90;;;;;;;7.68;55.55;99236.16;104882;1270;72182;-23
2023/10/09 09:36:30;;;;;;;2.50;0.80;;;;;;;7.83;55.93;99235.85;102100;1273;3116004;-23
2023/10/09 09:39:01;;;;;;;2.30;0.90;;;;;;;7.65;54.50;99241.85;105068;1270;62919;-23
2023/10/09 09:41:29;;;;;;;3.10;1.00;;;;;;;7.64;54.16;99247.66;104849;1270;61122;-23
2023/10/09 09:44:00;;;;;;;1.70;0.80;;;;;;;7.89;54.50;99237.72;105038;1269;72174;-23
2023/10/09 09:46:37;;;;;;;2.50;0.80;;;;;;;7.94;54.39;99226.66;104795;1270;74308;-23
2023/10/09 09:49:05;;;;;;;1.70;0.90;;;;;;;7.81;54.33;99221.45;104756;1277;75474;-23
2023/10/09 09:51:34;;;;;;;1.80;0.80;;;;;;;7.64;53.28;99214.26;104918;1264;61888;-23
2023/10/09 10:01:44;;;;;;;1.80;1.10;;;;;;;8.14;53.24;99209.22;102784;1290;600171;-24
2023/10/09 10:04:20;;;;;;;2.70;0.80;;;;;;;8.32;52.44;99217.00;104766;1267;61058;-23
2023/10/09 10:06:50;;;;;;;3.00;0.90;;;;;;;8.77;51.56;99216.45;104789;1265;61167;-22
2023/10/09 10:09:41;;;;;;;1.10;0.60;;;;;;;8.72;51.76;99215.95;105243;1264;72261;-23
2023/10/09 10:12:09;;;;;;;3.40;1.10;;;;;;;8.66;52.07;99232.83;104910;1270;76705;-25
2023/10/09 10:15:16;;;;;;;3.10;0.90;;;;;;;9.23;51.45;99234.33;102808;1260;3331922;-25
2023/10/09 10:17:58;;;;;;;2.00;1.00;;;;;;;9.75;50.32;99241.09;105242;1261;61192;-23
2023/10/09 10:28:28;;;;;;;3.00;0.70;;;;;;;9.59;49.43;99228.38;102667;1290;599440;-22
2023/10/09 10:31:00;;;;;;;2.00;0.90;;;;;;;9.66;48.64;99218.35;104858;1267;61132;-24
2023/10/09 10:41:11;;;;;;;1.80;0.90;;;;;;;9.07;49.83;99219.00;102595;1292;600036;-22
2023/10/09 10:46:38;;;;;;;2.00;0.90;;;;;;;8.54;50.43;99210.63;104803;1267;61123;-22
2023/10/09 10:51:49;;;;;;;2.40;1.20;;;;;;;8.37;52.22;99207.81;105247;1260;76782;-23
2023/10/09 10:54:45;;;;;;;2.90;1.30;;;;;;;8.27;52.28;99201.44;102838;1264;3196236;-23
2023/10/09 10:57:29;;;;;;;1.90;0.90;;;;;;;8.07;53.11;99191.85;105568;1262;61063;-23
2023/10/09 11:00:12;;;;;;;3.10;1.20;;;;;;;7.91;53.37;99189.02;105411;1262;61350;-23
2023/10/09 11:02:47;;;;;;;2.50;1.20;;;;;;;7.79;53.77;99188.58;105338;1265;74837;-22
2023/10/09 11:15:05;;;;;;;6.90;1.20;;;;;;;7.97;53.84;99193.56;102856;1289;599549;-22
2023/10/09 11:17:35;;;;;;;6.50;1.10;;;;;;;8.08;53.64;99186.46;105068;1269;61212;-24
2023/10/09 11:20:31;;;;;;;3.20;1.70;;;;;;;8.28;53.20;99188.89;104858;1280;62682;-23
2023/10/09 11:23:14;;;;;;;3.30;1.10;;;;;;;8.10;53.25;99182.99;104796;1269;70041;-24
2023/10/09 11:25:51;;;;;;;5.40;1.10;;;;;;;8.17;53.42;99185.68;104854;1271;77129;-23
2023/10/09 11:31:11;;;;;;;4.00;1.20;;;;;;;8.41;53.04;99189.19;105026;1270;61147;-23
2023/10/09 11:34:23;;;;;;;3.50;1.20;;;;;;;8.27;52.76;99187.89;105002;1260;61446;-23
2023/10/09 11:36:55;;;;;;;3.80;1.10;;;;;;;8.30;52.66;99186.85;105232;1267;71984;-23
2023/10/09 11:39:34;;;;;;;2.60;1.10;;;;;;;8.50;51.97;99193.75;105250;1261;74999;-23
2023/10/09 11:42:06;;;;;;;4.40;1.50;;;;;;;8.66;51.41;99186.62;104933;1270;73950;-22
2023/10/09 11:44:44;;;;;;;3.00;1.50;;;;;;;8.76;50.84;99180.05;104682;1274;63342;-23
2023/10/09 12:00:24;;;;;;;2.80;1.30;;;;;;;8.21;52.78;99167.41;102657;1289;599378;-22
2023/10/09 12:02:52;;;;;;;2.50;1.20;;;;;;;8.11;52.60;99169.33;104786;1267;62985;-22
2023/10/09 12:05:21;;;;;;;2.80;1.20;;;;;;;8.08;52.78;99168.30;104791;1269;61136;-24
2023/10/09 12:07:54;;;;;;;2.30;1.00;;;;;;;8.02;52.49;99159.52;104770;1272;72218;-24
2023/10/09 12:10:25;;;;;;;;;;;;;;;7.95;52.35;99155.55;104833;1271;77135;-21
2023/10/09 12:12:53;;;;;;;3.20;1.20;;;;;;;7.98;51.91;99153.05;102862;1260;3215056;-24
2023/10/09 12:15:21;;;;;;;2.90;1.20;;;;;;;8.03;52.11;99156.14;105274;1263;61119;-24
2023/10/09 12:17:49;;;;;;;4.10;1.40;;;;;;;8.03;52.14;99139.38;105479;1263;61191;-24
2023/10/09 12:20:30;;;;;;;3.70;1.40;;;;;;;8.11;52.72;99143.33;105488;1262;72251;-24
2023/10/09 12:22:59;;;;;;;2.20;1.00;;;;;;;8.37;51.77;99135.81;105317;1265;77176;-24
2023/10/09 12:25:31;;;;;;;1.80;1.10;;;;;;;8.57;50.65;99130.84;105606;1256;72662;-25
2023/10/09 12:28:01;;;;;;;3.00;1.10;;;;;;;8.67;49.95;99121.33;105583;1260;61473;-24
2023/10/09 12:30:29;;;;;;;2.60;1.10;;;;;;;8.67;50.45;99122.83;105508;1263;61282;-24
2023/10/09 12:32:57;;;;;;;2.40;1.20;;;;;;;8.55;50.75;99125.30;105676;1262;74769;-24
2023/10/09 12:35:27;;;;;;;2.00;0.90;;;;;;;8.42;50.63;99119.96;105626;1262;73180;-24
2023/10/09 12:37:56;;;;;;;2.80;1.20;;;;;;;8.30;50.89;99118.67;109125;1255;72673;-22
2023/10/09 12:40:24;;;;;;;2.50;1.00;;;;;;;8.29;50.91;99113.42;109076;1254;62347;-23
2023/10/09 12:42:52;;;;;;;3.70;1.40;;;;;;;8.28;51.47;99115.70;109101;1261;61564;-22
2023/10/09 12:45:26;;;;;;;2.90;1.10;;;;;;;8.21;50.56;99112.91;109203;1254;73053;-23
2023/10/09 12:47:58;;;;;;;3.30;1.30;;;;;;;8.25;50.66;99107.84;109116;1257;74332;-22
2023/10/09 12:50:33;;;;;;;2.60;1.10;;;;;;;8.32;50.87;99100.58;109182;1254;72479;-24
2023/10/09 12:53:07;;;;;;;4.20;1.50;;;;;;;8.23;50.49;99096.40;109156;1254;61130;-23
2023/10/09 12:55:41;;;;;;;1.90;1.20;;;;;;;7.98;50.60;99093.08;109213;1254;60094;-23
2023/10/09 12:58:14;;;;;;;3.90;1.10;;;;;;;7.94;51.20;99087.02;109128;1261;73082;-23
2023/10/09 13:00:48;;;;;;;4.80;1.40;;;;;;;7.94;51.10;99087.84;109190;1254;76612;-23
2023/10/09 13:03:17;;;;;;;2.30;1.20;;;;;;;7.98;51.44;99083.23;109094;1254;71452;-23
2023/10/09 13:05:54;;;;;;;2.90;1.30;;;;;;;8.04;51.27;99083.98;109093;1256;62433;-23
2023/10/09 13:08:31;;;;;;;3.10;1.10;;;;;;;8.03;50.52;99078.86;109080;1255;61135;-23
2023/10/09 13:11:11;;;;;;;2.10;0.90;;;;;;;7.97;50.87;99070.48;109122;1260;75272;-23
2023/10/09 13:13:41;;;;;;;2.10;0.80;;;;;;;7.93;51.12;99069.91;109100;1254;76522;-23
2023/10/09 13:16:12;;;;;;;2.90;1.10;;;;;;;7.97;51.24;99065.31;109117;1254;72648;-23
2023/10/09 13:18:41;;;;;;;3.40;1.30;;;;;;;7.97;51.42;99066.02;108983;1263;58895;-23
2023/10/09 13:21:09;;;;;;;3.00;1.20;;;;;;;7.94;51.18;99061.90;109012;1254;58815;-23
2023/10/09 13:23:39;;;;;;;2.80;1.20;;;;;;;7.90;51.18;99059.38;109126;1254;73504;-23
2023/10/09 13:29:09;;;;;;;2.30;1.20;;;;;;;7.88;50.97;99056.98;108880;1263;75005;-23
2023/10/09 13:31:46;;;;;;;2.60;1.20;;;;;;;7.91;51.13;99056.21;109201;1254;62332;-23
2023/10/09 13:34:17;;;;;;;3.30;1.20;;;;;;;7.97;50.62;99053.20;109129;1254;60193;-23
2023/10/09 13:36:52;;;;;;;2.90;1.20;;;;;;;8.02;51.40;99059.45;109230;1254;71855;-23
2023/10/09 13:39:26;;;;;;;1.30;0.90;;;;;;;8.06;51.65;99064.88;109221;1254;72914;-23
2023/10/09 13:41:58;;;;;;;1.70;0.80;;;;;;;8.05;50.57;99060.25;109051;1260;74532;-23
2023/10/09 13:44:31;;;;;;;8.90;1.50;;;;;;;8.03;50.79;99057.49;108966;1257;61088;-23
2023/10/09 13:47:05;;;;;;;2.20;1.00;;;;;;;7.94;50.69;99052.39;109088;1254;61206;-23
2023/10/09 13:49:34;;;;;;;3.60;1.20;;;;;;;7.89;50.53;99046.88;109159;1254;71839;-23
2023/10/09 13:52:02;;;;;;;1.80;0.80;;;;;;;7.85;50.43;99046.75;109138;1254;73946;-23
2023/10/09 13:57:05;;;;;;;2.40;0.80;;;;;;;7.86;51.00;99053.14;109138;1254;58820;-23
2023/10/09 13:59:36;;;;;;;2.30;0.90;;;;;;;7.82;50.29;99052.89;109182;1254;60033;-23
2023/10/09 14:02:17;;;;;;;2.90;1.20;;;;;;;7.76;50.69;99046.20;109137;1254;73035;-23
2023/10/09 14:04:47;;;;;;;2.90;1.10;;;;;;;7.75;51.21;99051.66;109226;1254;74583;-23
2023/10/09 14:07:20;;;;;;;2.40;1.00;;;;;;;7.80;52.01;99054.07;109101;1256;72654;-23
2023/10/09 14:10:07;;;;;;;1.70;0.70;;;;;;;7.78;51.78;99053.32;109143;1256;60030;-23
2023/10/09 14:12:39;;;;;;;1.70;0.80;;;;;;;7.75;51.86;99055.63;109135;1257;61083;-23
2023/10/09 14:15:16;;;;;;;2.80;1.30;;;;;;;7.71;52.10;99056.94;109177;1257;75137;-23
2023/10/09 14:17:46;;;;;;;1.90;0.80;;;;;;;7.72;52.50;99059.98;109121;1255;73484;-23
2023/10/09 14:20:30;;;;;;;2.90;1.40;;;;;;;7.71;52.95;99059.50;109031;1257;75923;-23
2023/10/09 14:23:06;;;;;;;3.70;1.80;;;;;;;7.64;53.60;99057.08;109098;1257;59140;-23
2023/10/09 14:25:39;;;;;;;3.00;1.10;;;;;;;7.59;53.83;99062.21;109047;1256;60094;-23
2023/10/09 14:28:08;;;;;;;3.40;1.40;;;;;;;7.56;54.32;99066.18;109146;1256;73085;-23
2023/10/09 14:30:42;;;;;;;4.40;1.60;;;;;;;7.53;54.70;99062.48;109063;1255;73425;-23
2023/10/09 14:33:13;;;;;;;3.30;1.30;;;;;;;7.49;55.18;99060.83;109127;1256;71374;-23
2023/10/09 14:35:42;;;;;;;5.00;1.60;;;;;;;7.46;55.34;99057.63;109070;1257;59642;-23
2023/10/09 14:38:12;;;;;;;3.30;1.00;;;;;;;7.45;55.64;99058.85;109167;1255;62338;-23
2023/10/09 14:40:44;;;;;;;2.30;1.00;;;;;;;7.44;55.77;99058.95;109126;1256;74245;-23
2023/10/09 14:43:22;;;;;;;2.70;1.10;;;;;;;7.42;55.69;99055.08;109066;1260;74311;-23
2023/10/09 14:45:53;;;;;;;3.30;1.50;;;;;;;7.41;55.85;99064.15;109062;1255;72707;-23
2023/10/09 14:48:28;;;;;;;4.20;1.60;;;;;;;7.38;56.04;99065.05;109059;1256;59449;-23
2023/10/09 14:51:04;;;;;;;4.00;2.10;;;;;;;7.32;56.69;99063.86;109129;1256;60035;-23
2023/10/09 14:53:35;;;;;;;4.70;2.10;;;;;;;7.26;56.76;99064.45;109168;1257;73202;-23
2023/10/09 14:56:08;;;;;;;5.90;2.20;;;;;;;7.22;56.93;99064.39;109138;1255;74338;-23
2023/10/09 14:58:38;;;;;;;;;;;;;;;7.14;57.04;99064.19;109030;1257;71460;-23
2023/10/09 15:01:12;;;;;;;4.30;2.00;;;;;;;7.06;57.21;99063.20;109112;1257;58830;-23
2023/10/09 15:03:41;;;;;;;4.00;1.40;;;;;;;6.99;57.15;99058.47;109054;1256;58746;-23
2023/10/09 15:06:11;;;;;;;3.10;1.30;;;;;;;6.92;57.52;99058.43;109055;1257;73042;-23
2023/10/09 15:08:39;;;;;;;3.00;1.20;;;;;;;6.86;57.52;99060.86;109120;1255;74504;-23
2023/10/09 15:11:08;;;;;;;2.40;1.10;;;;;;;6.80;57.90;99059.87;109052;1257;72677;-23
2023/10/09 15:13:39;;;;;;;1.90;0.90;;;;;;;6.77;58.35;99063.69;109164;1256;60318;-22
2023/10/09 15:16:07;;;;;;;3.60;1.50;;;;;;;6.74;58.68;99068.05;109154;1256;61043;-22
2023/10/09 15:18:37;;;;;;;1.60;1.10;;;;;;;6.67;59.32;99066.20;109120;1257;73109;-23
2023/10/09 15:21:06;;;;;;;3.80;1.20;;;;;;;6.63;59.71;99070.32;109136;1257;74450;-22
2023/10/09 15:23:36;;;;;;;2.00;1.00;;;;;;;6.57;60.11;99067.91;109183;1257;73383;-23
2023/10/09 15:26:06;;;;;;;2.50;1.10;;;;;;;6.54;60.48;99068.80;109054;1257;61126;-23
2023/10/09 15:28:35;;;;;;;4.00;1.20;;;;;;;6.49;61.07;99069.84;109220;1255;62245;-23
2023/10/09 15:31:10;;;;;;;2.80;0.90;;;;;;;6.43;61.33;99072.08;109127;1257;74991;-23
2023/10/09 15:33:39;;;;;;;2.50;1.10;;;;;;;6.35;61.97;99075.67;109056;1256;75549;-22
2023/10/09 15:36:12;;;;;;;4.90;1.30;;;;;;;6.30;62.23;99072.88;108930;1256;72887;-23
2023/10/09 15:38:40;;;;;;;2.00;1.00;;;;;;;6.25;62.77;99072.38;109009;1258;60588;-23
2023/10/09 15:41:08;;;;;;;2.60;1.30;;;;;;;6.19;62.89;99074.95;109176;1257;61083;-23
2023/10/09 15:43:36;;;;;;;1.80;1.00;;;;;;;6.16;63.22;99075.05;109044;1257;74609;-23
2023/10/09 15:46:05;;;;;;;2.30;1.20;;;;;;;6.09;63.35;99078.83;109093;1257;74576;-23
2023/10/09 15:48:35;;;;;;;4.40;1.10;;;;;;;6.05;63.49;99080.66;109061;1255;72648;-23
2023/10/09 15:51:03;;;;;;;3.00;1.70;;;;;;;6.02;63.89;99086.55;109140;1257;60301;-23
2023/10/09 15:53:30;;;;;;;3.30;1.50;;;;;;;5.97;64.18;99083.67;109213;1255;60084;-23
2023/10/09 15:55:58;;;;;;;3.00;1.20;;;;;;;5.92;64.66;99088.14;109179;1256;73034;-23
2023/10/09 15:58:26;;;;;;;4.00;1.30;;;;;;;5.88;64.46;99088.54;108955;1256;73165;-23
2023/10/09 16:00:54;;;;;;;2.80;1.40;;;;;;;5.83;64.79;99093.68;109049;1256;72618;-23
2023/10/09 16:03:24;;;;;;;2.80;1.10;;;;;;;5.79;65.07;99091.86;109035;1256;59703;-22
2023/10/09 16:05:52;;;;;;;3.20;1.20;;;;;;;5.75;65.26;99087.23;109090;1257;59424;-23
2023/10/09 16:08:22;;;;;;;2.80;1.40;;;;;;;5.72;65.27;99092.13;109035;1257;71834;-23
2023/10/09 16:10:50;;;;;;;2.20;1.40;;;;;;;5.66;65.70;99099.86;108981;1260;73318;-23
2023/10/09 16:13:21;;;;;;;2.50;1.30;;;;;;;5.62;66.05;99101.84;109022;1258;74970;-23
2023/10/09 16:15:48;;;;;;;3.30;1.60;;;;;;;5.59;66.27;99102.04;108957;1257;58820;-23
2023/10/09 16:18:16;;;;;;;2.60;1.50;;;;;;;5.56;66.13;99098.06;109008;1257;59152;-23
2023/10/09 16:20:46;;;;;;;4.00;1.70;;;;;;;5.53;66.18;99097.21;109027;1257;73876;-23
2023/10/09 16:23:13;;;;;;;4.80;1.80;;;;;;;5.49;66.52;99097.08;109022;1257;73074;-23
2023/10/09 16:25:41;;;;;;;4.20;2.30;;;;;;;5.46;66.67;99095.53;109024;1257;71495;-23
2023/10/09 16:28:09;;;;;;;4.80;2.50;;;;;;;5.42;66.92;99092.84;109018;1258;61506;-23
2023/10/09 16:30:37;;;;;;;4.20;2.20;;;;;;;5.37;67.27;99086.97;109057;1257;62313;-23
2023/10/09 16:33:05;;;;;;;5.60;2.40;;;;;;;5.33;67.48;99083.90;108973;1257;73911;-23
2023/10/09 16:35:37;;;;;;;6.20;2.60;;;;;;;5.30;67.64;99080.14;109025;1257;76634;-23
2023/10/09 16:38:11;;;;;;;5.40;2.10;;;;;;;5.27;67.89;99082.94;108989;1257;72296;-23
2023/10/09 16:40:40;;;;;;;3.80;2.00;;;;;;;5.24;67.86;99088.23;109017;1257;61637;-23
2023/10/09 16:43:13;;;;;;;4.40;1.80;;;;;;;5.21;67.93;99092.70;108958;1257;59505;-23
2023/10/09 16:45:43;;;;;;;3.20;1.70;;;;;;;5.18;68.07;99096.13;109032;1256;73845;-23
2023/10/09 16:48:15;;;;;;;6.30;2.30;;;;;;;5.14;68.31;99094.45;109059;1256;76338;-23
2023/10/09 16:50:46;;;;;;;4.10;1.90;;;;;;;5.10;68.41;99096.59;109023;1256;72743;-23
2023/10/09 16:53:16;;;;;;;2.60;1.50;;;;;;;5.08;68.61;99093.09;108943;1256;61403;-23
2023/10/09 16:55:44;;;;;;;3.70;1.70;;;;;;;5.66;68.20;99089.02;108990;1257;61246;-23
2023/10/09 16:58:15;;;;;;;3.10;1.60;;;;;;;6.34;66.05;99085.09;109057;1257;74073;-23
2023/10/09 17:00:46;;;;;;;5.20;1.80;;;;;;;6.48;65.07;99086.75;108981;1257;74304;-23